Nekoma, Illinois
Current Conditions -  °F | °C
As of 2:55 AM on Sunday 23 Nov 2014 (Local Time) from KGBG Reporting Station
Overcast Overcast  
Wind Chill: 47°   Ceiling: 1200
Heat Index: 49°   Visibility: 10mi
Dew Point: 47°   Wind: 6mph
Humidity: 92%   Direction: 160°SSE
Pressure: 29.74"   Gusts: NA
Location:  41.194°N, 90.2383°W
Report Text: KGBG 230855Z AUTO 16005KT 10SM BKN012 BKN017 OVC035 10/08 A2974 RMK AO2 T00950082
Loading
Personal Weather Stations






























Interactive Weather Map New forecast layout! Learn more

10-Day Weather Forecast

Advertisements
Track Severe Weather on mobile